LFMN

Nice-Côte d'Azur Airport

Airport
ICAO code
LFMN
IATA Code
NCE
Summary
ICAO Region
EUR
ICAO Territory
Location

Nice, Provence-Alpes-Cote d'Azur

Serving
Nice
Elevation
12 ft
Coordinates
43° 39' 35" N , 7° 12' 47" E
KCC
Airport LOS
Parallel Runway Operation
Metar
Observation
LFMN 070430Z 33013KT 9999 SCT027 06/00 Q1011 NOSIG
Station
Nice
Date/Time
2022-12-07 04:30:00
Wind direction
330°
Wind speed
13 kts
Lowest cloud amount
scattered clouds
Temperature
6°C
Dew point
0°C
Humidity
65%
QNH
1011 hPa
Weather condition
n/a

Description

Nice Côte d'Azur Airport is an airport located 3.2 nm southwest of Nice, in the Alpes-Maritimes department of France. The airport is positioned 7 km west of the city centre, and is the principal port of arrival for passengers to the Côte d'Azur.

Climatology

Dry-summer subtropical ”Mediterranean" climate (Köppen climate classification Csa) - characterized by hot, dry summers and mild winters. During the summer, subtropical high pressure cells dominate, making rainfall unlikely except for the occasional thunderstorm. In the winter, periodic storms bring rain (snow at higher elevations).

Runways

Designator Length Width Surface Rops
04L/22R 2742 45 ASP Yes/Yes
04R/22L 2960 45 ASP Yes/Yes

SKYbrary Partners:

Safety knowledge contributed by: